createdAt,value
2022-07-31T00:02:08.040Z,43.98
2022-07-31T00:04:34.589Z,43.81
2022-07-31T00:07:01.423Z,44.01
2022-07-31T00:09:52.541Z,44.23
2022-07-31T00:12:38.420Z,44.82
2022-07-31T00:15:06.983Z,45.66
2022-07-31T00:17:34.030Z,45.51
2022-07-31T00:20:00.470Z,44.96
2022-07-31T00:22:26.867Z,45.78
2022-07-31T00:24:53.333Z,46.00
2022-07-31T00:27:19.783Z,44.85
2022-07-31T00:29:46.497Z,45.99
2022-07-31T00:32:13.061Z,46.04
2022-07-31T00:34:39.508Z,46.15
2022-07-31T00:37:06.332Z,45.96
2022-07-31T00:39:33.121Z,46.03
2022-07-31T00:41:59.634Z,46.48
2022-07-31T00:44:26.193Z,46.23
2022-07-31T00:46:52.691Z,46.44
2022-07-31T00:49:19.937Z,46.51
2022-07-31T00:51:46.466Z,46.50
2022-07-31T00:54:16.281Z,46.51
2022-07-31T00:56:50.048Z,46.35
2022-07-31T00:59:16.811Z,46.35
2022-07-31T01:01:51.146Z,47.31
2022-07-31T01:04:19.713Z,47.62
2022-07-31T01:06:47.531Z,47.11
2022-07-31T01:09:17.338Z,47.66
2022-07-31T01:11:50.585Z,47.43
2022-07-31T01:14:20.226Z,47.47
2022-07-31T01:16:49.238Z,48.26
2022-07-31T01:19:37.903Z,47.43
2022-07-31T01:22:43.967Z,47.19
2022-07-31T01:25:10.338Z,47.33
2022-07-31T01:27:56.288Z,47.24
2022-07-31T01:30:30.466Z,47.73
2022-07-31T01:33:02.338Z,48.10
2022-07-31T01:35:35.058Z,47.36
2022-07-31T01:38:13.104Z,47.44
2022-07-31T01:40:46.553Z,46.93
2022-07-31T01:43:19.046Z,47.52
2022-07-31T01:45:48.007Z,46.92
2022-07-31T01:48:17.147Z,46.85
2022-07-31T01:50:47.154Z,46.86
2022-07-31T01:53:20.156Z,47.00
2022-07-31T01:56:00.896Z,47.58
2022-07-31T01:58:34.813Z,47.56
2022-07-31T02:01:03.644Z,46.60
2022-07-31T02:03:43.420Z,46.88
2022-07-31T02:06:13.400Z,46.56
2022-07-31T02:08:40.504Z,46.82
2022-07-31T02:11:08.539Z,46.89
2022-07-31T02:13:37.353Z,46.83
2022-07-31T02:16:05.578Z,46.72
2022-07-31T02:18:34.074Z,46.59
2022-07-31T02:21:00.640Z,46.30
2022-07-31T02:23:27.075Z,47.34
2022-07-31T02:25:54.473Z,46.79
2022-07-31T02:28:22.184Z,46.41
2022-07-31T02:30:49.771Z,46.67
2022-07-31T02:33:23.113Z,46.32
2022-07-31T02:35:51.558Z,46.67
2022-07-31T02:38:23.395Z,46.25
2022-07-31T02:40:53.210Z,46.54
2022-07-31T02:43:21.093Z,46.68
2022-07-31T02:45:48.366Z,46.93
2022-07-31T02:48:15.407Z,46.79
2022-07-31T02:50:42.970Z,47.23
2022-07-31T02:53:09.756Z,47.45
2022-07-31T02:55:36.871Z,47.42
2022-07-31T02:58:06.175Z,47.04
2022-07-31T03:00:32.982Z,47.08
2022-07-31T03:02:59.415Z,47.33
2022-07-31T03:05:25.912Z,47.77
2022-07-31T03:07:52.585Z,47.77
2022-07-31T03:10:19.098Z,48.41
2022-07-31T03:12:52.670Z,48.75
2022-07-31T03:15:22.331Z,48.98
2022-07-31T03:17:49.926Z,49.34
2022-07-31T03:20:17.124Z,49.39
2022-07-31T03:22:44.330Z,49.02
2022-07-31T03:25:11.482Z,49.27
2022-07-31T03:27:52.501Z,49.57
2022-07-31T03:30:26.393Z,49.63
2022-07-31T03:32:54.272Z,49.67
2022-07-31T03:35:21.124Z,49.80
2022-07-31T03:37:47.560Z,50.16
2022-07-31T03:40:14.097Z,50.00
2022-07-31T03:42:41.858Z,50.01
2022-07-31T03:45:10.814Z,49.96
2022-07-31T03:47:37.736Z,50.31
2022-07-31T03:50:04.725Z,50.47
2022-07-31T03:52:31.457Z,50.62
2022-07-31T03:54:57.915Z,50.49
2022-07-31T03:57:30.249Z,50.61
2022-07-31T04:00:02.334Z,50.72
2022-07-31T04:02:29.755Z,51.04
2022-07-31T04:04:57.307Z,50.79
2022-07-31T04:07:24.495Z,50.83
2022-07-31T04:09:51.438Z,50.84
2022-07-31T04:12:17.921Z,51.04
2022-07-31T04:14:44.620Z,50.87
2022-07-31T04:17:12.111Z,51.02
2022-07-31T04:19:39.273Z,51.13
2022-07-31T04:22:06.854Z,51.08
2022-07-31T04:24:34.047Z,51.05
2022-07-31T04:27:00.743Z,50.99
2022-07-31T04:29:29.825Z,50.86
2022-07-31T04:31:57.182Z,51.32
2022-07-31T04:34:23.646Z,51.20
2022-07-31T04:36:50.193Z,51.27
2022-07-31T04:39:16.828Z,51.05
2022-07-31T04:41:43.283Z,50.46
2022-07-31T04:44:10.447Z,50.65
2022-07-31T04:46:37.153Z,50.73
2022-07-31T04:49:03.755Z,50.87
2022-07-31T04:51:30.339Z,50.40
2022-07-31T04:53:56.767Z,50.99
2022-07-31T04:56:42.087Z,51.30
2022-07-31T04:59:16.277Z,51.09
2022-07-31T05:01:43.804Z,51.06
2022-07-31T05:04:10.974Z,50.85
2022-07-31T05:06:43.617Z,51.19
2022-07-31T05:09:18.695Z,51.56
2022-07-31T05:11:47.226Z,51.41
2022-07-31T05:14:15.354Z,51.84
2022-07-31T05:16:42.216Z,51.89
2022-07-31T05:19:13.818Z,51.77
2022-07-31T05:21:47.119Z,51.43
2022-07-31T05:24:33.093Z,51.30
2022-07-31T05:27:01.490Z,52.16
2022-07-31T05:29:27.974Z,52.28
2022-07-31T05:31:59.407Z,52.05
2022-07-31T05:34:29.205Z,52.74
2022-07-31T05:36:56.728Z,53.18
2022-07-31T05:39:25.055Z,53.45
2022-07-31T05:41:52.695Z,53.57
2022-07-31T05:44:19.109Z,53.90
2022-07-31T05:46:45.591Z,54.57
2022-07-31T05:49:12.090Z,54.86
2022-07-31T05:51:38.595Z,54.95
2022-07-31T05:54:05.076Z,54.89
2022-07-31T05:56:31.504Z,55.25
2022-07-31T05:58:58.008Z,55.73
2022-07-31T06:01:24.459Z,56.38
2022-07-31T06:03:51.914Z,55.67
2022-07-31T06:06:19.294Z,55.89
2022-07-31T06:08:45.739Z,55.98
2022-07-31T06:11:12.191Z,56.28
2022-07-31T06:13:38.857Z,56.92
2022-07-31T06:16:11.978Z,57.33
2022-07-31T06:18:38.486Z,57.76
2022-07-31T06:21:04.908Z,57.66
2022-07-31T06:23:32.412Z,57.91
2022-07-31T06:25:59.199Z,58.09
2022-07-31T06:28:47.476Z,58.12
2022-07-31T06:31:19.939Z,58.14
2022-07-31T06:33:48.469Z,58.52
2022-07-31T06:36:15.735Z,58.95
2022-07-31T06:38:42.172Z,59.11
2022-07-31T06:41:08.603Z,59.70
2022-07-31T06:43:35.045Z,59.81
2022-07-31T06:46:01.519Z,58.86
2022-07-31T06:48:28.399Z,58.87
2022-07-31T06:51:14.470Z,59.10
2022-07-31T06:53:41.489Z,58.84
2022-07-31T06:56:07.924Z,58.39
2022-07-31T06:58:34.437Z,58.48
2022-07-31T07:01:00.975Z,59.04
2022-07-31T07:03:27.414Z,60.45
2022-07-31T07:05:53.851Z,59.86
2022-07-31T07:08:20.249Z,59.69
2022-07-31T07:10:46.902Z,60.13
2022-07-31T07:13:13.324Z,60.51
2022-07-31T07:15:39.742Z,59.90
2022-07-31T07:18:06.938Z,59.81
2022-07-31T07:20:33.580Z,59.60
2022-07-31T07:23:00.125Z,59.36
2022-07-31T07:25:26.553Z,59.50
2022-07-31T07:27:53.738Z,58.92
2022-07-31T07:30:20.334Z,58.37
2022-07-31T07:32:46.743Z,58.56
2022-07-31T07:35:13.484Z,58.70
2022-07-31T07:37:40.902Z,59.32
2022-07-31T07:40:08.746Z,59.38
2022-07-31T07:42:35.503Z,60.16
2022-07-31T07:45:02.811Z,60.12
2022-07-31T07:48:05.770Z,59.92
2022-07-31T07:50:19.582Z,59.74
2022-07-31T07:52:46.200Z,59.44
2022-07-31T07:55:12.739Z,59.12
2022-07-31T07:57:40.171Z,58.47
2022-07-31T08:00:09.566Z,58.41
2022-07-31T08:02:36.449Z,58.64
2022-07-31T08:05:03.063Z,57.78
2022-07-31T08:07:42.176Z,58.68
2022-07-31T08:10:10.285Z,59.15
2022-07-31T08:12:37.184Z,58.71
2022-07-31T08:15:05.527Z,58.94
2022-07-31T08:17:31.951Z,59.18
2022-07-31T08:19:58.373Z,59.33
2022-07-31T08:22:24.836Z,59.16
2022-07-31T08:24:51.388Z,58.42
2022-07-31T08:27:24.022Z,57.94
2022-07-31T08:30:07.079Z,58.11
2022-07-31T08:32:33.593Z,58.31
2022-07-31T08:35:00.119Z,57.84
2022-07-31T08:38:02.710Z,57.66
2022-07-31T08:40:13.142Z,57.15
2022-07-31T08:42:39.650Z,57.00
2022-07-31T08:45:08.099Z,56.76
2022-07-31T08:47:36.137Z,56.91
2022-07-31T08:50:05.532Z,56.99
2022-07-31T08:52:34.703Z,56.52
2022-07-31T08:55:06.870Z,56.44
2022-07-31T08:57:34.219Z,56.23
2022-07-31T09:00:00.628Z,56.27
2022-07-31T09:02:27.102Z,55.82
2022-07-31T09:04:54.618Z,56.13
2022-07-31T09:07:21.026Z,55.78
2022-07-31T09:09:51.148Z,55.34
2022-07-31T09:12:38.990Z,55.27
2022-07-31T09:15:19.729Z,55.55
2022-07-31T09:17:53.894Z,55.56
2022-07-31T09:20:33.103Z,55.52
2022-07-31T09:23:08.054Z,55.28
2022-07-31T09:25:34.827Z,54.73
2022-07-31T09:28:06.444Z,55.53
2022-07-31T09:30:34.159Z,55.01
2022-07-31T09:33:19.040Z,53.62
2022-07-31T09:35:52.730Z,53.83
2022-07-31T09:38:20.559Z,53.44
2022-07-31T09:40:55.167Z,53.88
2022-07-31T09:43:31.806Z,54.08
2022-07-31T09:45:59.933Z,54.48
2022-07-31T09:48:28.812Z,53.47
2022-07-31T09:51:04.606Z,53.69
2022-07-31T09:53:53.496Z,53.58
2022-07-31T09:56:35.994Z,52.79
2022-07-31T09:59:03.173Z,52.30
2022-07-31T10:01:30.920Z,52.38
2022-07-31T10:04:00.567Z,51.84
2022-07-31T10:06:31.617Z,51.96
2022-07-31T10:08:59.942Z,51.88
2022-07-31T10:11:27.915Z,51.48
2022-07-31T10:13:57.035Z,51.54
2022-07-31T10:16:27.369Z,50.41
2022-07-31T10:18:59.521Z,50.48
2022-07-31T10:21:32.221Z,50.23
2022-07-31T10:24:00.663Z,49.82
2022-07-31T10:26:50.746Z,49.51
2022-07-31T10:29:17.562Z,49.96
2022-07-31T10:31:46.233Z,50.10
2022-07-31T10:34:15.545Z,50.47
2022-07-31T10:36:44.997Z,49.12
2022-07-31T10:39:49.279Z,48.92
2022-07-31T10:42:19.629Z,50.08
2022-07-31T10:44:55.418Z,50.18
2022-07-31T10:47:22.151Z,49.90
2022-07-31T10:49:49.741Z,50.08
2022-07-31T10:52:37.168Z,49.81
2022-07-31T10:55:27.274Z,49.70
2022-07-31T10:57:57.163Z,48.78
2022-07-31T11:00:28.353Z,49.40
2022-07-31T11:02:56.979Z,49.18
2022-07-31T11:05:24.548Z,48.65
2022-07-31T11:08:05.430Z,48.78
2022-07-31T11:10:34.120Z,48.21
2022-07-31T11:13:08.869Z,48.07
2022-07-31T11:15:37.407Z,47.96
2022-07-31T11:18:24.888Z,48.17
2022-07-31T11:21:13.326Z,47.89
2022-07-31T11:23:56.093Z,47.57
2022-07-31T11:26:32.805Z,47.38
2022-07-31T11:30:00.452Z,47.80
2022-07-31T11:31:58.633Z,47.17
2022-07-31T11:34:26.019Z,47.12
2022-07-31T11:36:52.536Z,47.36
2022-07-31T11:39:19.014Z,47.25
2022-07-31T11:41:52.563Z,46.86
2022-07-31T11:44:22.173Z,47.57
2022-07-31T11:46:51.195Z,47.26
2022-07-31T11:49:47.959Z,46.90
2022-07-31T11:52:30.799Z,47.23
2022-07-31T11:55:10.027Z,47.35
2022-07-31T11:57:52.423Z,47.45
2022-07-31T12:00:29.250Z,48.17
2022-07-31T12:02:57.658Z,47.75
2022-07-31T12:05:38.845Z,47.94
2022-07-31T12:08:07.737Z,47.19
2022-07-31T12:10:34.876Z,47.37
2022-07-31T12:13:02.347Z,46.32
2022-07-31T12:15:28.811Z,46.04
2022-07-31T12:18:08.108Z,45.58
2022-07-31T12:20:36.506Z,45.62
2022-07-31T12:23:05.690Z,45.33
2022-07-31T12:25:43.227Z,45.49
2022-07-31T12:28:10.148Z,45.10
2022-07-31T12:30:36.849Z,45.60
2022-07-31T12:33:08.041Z,45.60
2022-07-31T12:35:55.655Z,44.92
2022-07-31T12:38:40.760Z,44.79
2022-07-31T12:41:08.150Z,44.55
2022-07-31T12:43:37.631Z,44.68
2022-07-31T12:46:06.857Z,45.03
2022-07-31T12:48:38.593Z,44.73
2022-07-31T12:51:06.725Z,45.41
2022-07-31T12:53:33.218Z,45.14
2022-07-31T12:55:59.593Z,45.43
2022-07-31T12:58:26.028Z,46.09
2022-07-31T13:00:54.696Z,45.60
2022-07-31T13:03:21.398Z,45.68
2022-07-31T13:05:51.752Z,45.37
2022-07-31T13:08:18.652Z,45.17
2022-07-31T13:10:46.098Z,44.57
2022-07-31T13:13:12.617Z,44.63
2022-07-31T13:15:39.201Z,44.93
2022-07-31T13:18:05.792Z,44.43
2022-07-31T13:20:32.824Z,43.71
2022-07-31T13:22:59.592Z,44.28
2022-07-31T13:25:28.357Z,43.29
2022-07-31T13:27:54.771Z,43.60
2022-07-31T13:30:21.179Z,43.37
2022-07-31T13:32:47.611Z,43.63
2022-07-31T13:35:25.970Z,43.65
2022-07-31T13:37:55.217Z,43.75
2022-07-31T13:40:40.413Z,43.44
2022-07-31T13:43:06.877Z,44.06
2022-07-31T13:45:33.264Z,44.20
2022-07-31T13:48:00.989Z,44.59
2022-07-31T13:50:28.836Z,44.55
2022-07-31T13:52:57.648Z,44.55
2022-07-31T13:55:25.443Z,44.54
2022-07-31T13:57:52.375Z,43.72
2022-07-31T14:00:21.986Z,42.67
2022-07-31T14:02:49.964Z,42.70
2022-07-31T14:05:16.635Z,42.78
2022-07-31T14:07:48.212Z,43.41
2022-07-31T14:10:20.575Z,43.49
2022-07-31T14:12:47.988Z,43.10
2022-07-31T14:15:14.570Z,43.00
2022-07-31T14:17:41.035Z,43.14
2022-07-31T14:20:08.122Z,43.31
2022-07-31T14:22:34.769Z,43.33
2022-07-31T14:25:01.198Z,43.17
2022-07-31T14:27:27.677Z,43.85
2022-07-31T14:29:54.162Z,43.87
2022-07-31T14:32:22.012Z,44.34
2022-07-31T14:34:51.608Z,44.03
2022-07-31T14:37:18.475Z,43.59
2022-07-31T14:39:44.976Z,44.04
2022-07-31T14:42:12.337Z,44.04
2022-07-31T14:44:41.867Z,43.95
2022-07-31T14:47:10.404Z,43.69
2022-07-31T14:50:08.996Z,43.36
2022-07-31T14:52:23.846Z,43.75
2022-07-31T14:54:50.398Z,43.52
2022-07-31T14:57:20.129Z,43.82
2022-07-31T14:59:49.897Z,43.79
2022-07-31T15:02:21.450Z,44.12
2022-07-31T15:04:48.892Z,44.20
2022-07-31T15:07:34.346Z,44.23
2022-07-31T15:10:04.120Z,44.41
2022-07-31T15:12:30.628Z,44.64
2022-07-31T15:14:57.074Z,44.47
2022-07-31T15:17:23.676Z,44.05
2022-07-31T15:19:50.374Z,43.98
2022-07-31T15:22:19.710Z,43.90
2022-07-31T15:24:49.629Z,44.30
2022-07-31T15:27:21.549Z,44.18
2022-07-31T15:30:00.440Z,43.32
2022-07-31T15:32:33.746Z,42.58
2022-07-31T15:35:00.247Z,42.29
2022-07-31T15:37:26.705Z,42.15
2022-07-31T15:40:02.824Z,42.66
2022-07-31T15:42:32.017Z,42.99
2022-07-31T15:44:58.822Z,43.05
2022-07-31T15:47:25.421Z,43.30
2022-07-31T15:49:51.821Z,43.29
2022-07-31T15:52:19.288Z,43.30
2022-07-31T15:54:46.702Z,43.34
2022-07-31T15:57:13.474Z,43.51
2022-07-31T15:59:39.997Z,44.46
2022-07-31T16:02:07.213Z,44.55
2022-07-31T16:04:34.851Z,44.83
2022-07-31T16:08:29.871Z,44.49
2022-07-31T16:10:14.857Z,44.49
2022-07-31T16:12:35.404Z,44.96
2022-07-31T16:15:02.452Z,45.10
2022-07-31T16:17:37.742Z,44.95
2022-07-31T16:20:07.058Z,44.77
2022-07-31T16:22:33.716Z,44.54
2022-07-31T16:25:00.107Z,44.76
2022-07-31T16:27:26.657Z,45.03
2022-07-31T16:29:59.404Z,45.34
2022-07-31T16:32:28.604Z,45.26
2022-07-31T16:34:58.476Z,45.11
2022-07-31T16:37:50.252Z,45.51
2022-07-31T16:40:28.682Z,45.76
2022-07-31T16:43:02.020Z,45.39
2022-07-31T16:45:29.645Z,46.31
2022-07-31T16:47:56.875Z,45.76
2022-07-31T16:50:23.754Z,45.37
2022-07-31T16:52:54.562Z,44.94
2022-07-31T16:55:51.669Z,45.44
2022-07-31T16:58:11.484Z,45.02
2022-07-31T17:00:39.271Z,45.13
2022-07-31T17:03:06.005Z,45.57
2022-07-31T17:05:32.467Z,46.12
2022-07-31T17:07:59.031Z,46.22
2022-07-31T17:10:26.188Z,46.34
2022-07-31T17:12:53.616Z,46.36
2022-07-31T17:15:20.688Z,46.95
2022-07-31T17:17:47.390Z,47.27
2022-07-31T17:20:14.981Z,46.99
2022-07-31T17:22:41.562Z,47.37
2022-07-31T17:25:09.830Z,47.09
2022-07-31T17:27:36.325Z,46.52
2022-07-31T17:30:03.476Z,46.19
2022-07-31T17:32:32.060Z,46.39
2022-07-31T17:34:58.460Z,46.88
2022-07-31T17:37:25.144Z,47.21
2022-07-31T17:39:55.169Z,47.21
2022-07-31T17:42:25.208Z,46.81
2022-07-31T17:44:55.263Z,47.31
2022-07-31T17:47:25.448Z,47.47
2022-07-31T17:49:52.905Z,47.27
2022-07-31T17:52:20.866Z,46.83
2022-07-31T17:54:47.928Z,47.11
2022-07-31T17:57:14.624Z,47.61
2022-07-31T17:59:43.292Z,47.23
2022-07-31T18:02:10.444Z,47.59
2022-07-31T18:04:37.632Z,47.91
2022-07-31T18:07:05.900Z,47.51
2022-07-31T18:09:33.089Z,47.34
2022-07-31T18:11:59.924Z,48.07
2022-07-31T18:14:26.497Z,48.36
2022-07-31T18:16:53.535Z,48.29
2022-07-31T18:19:21.772Z,47.99
2022-07-31T18:21:48.812Z,48.13
2022-07-31T18:24:15.282Z,48.38
2022-07-31T18:26:41.747Z,48.66
2022-07-31T18:29:08.259Z,48.27
2022-07-31T18:31:35.961Z,48.66
2022-07-31T18:34:04.823Z,48.76
2022-07-31T18:36:32.566Z,49.08
2022-07-31T18:38:59.027Z,49.42
2022-07-31T18:41:25.502Z,48.93
2022-07-31T18:43:52.045Z,49.16
2022-07-31T18:46:19.918Z,50.16
2022-07-31T18:48:46.471Z,49.71
2022-07-31T18:51:13.018Z,49.68
2022-07-31T18:53:39.469Z,50.39
2022-07-31T18:56:05.940Z,50.69
2022-07-31T18:58:32.388Z,50.33
2022-07-31T19:00:58.868Z,50.40
2022-07-31T19:03:26.264Z,52.31
2022-07-31T19:05:53.616Z,52.92
2022-07-31T19:08:20.452Z,52.87
2022-07-31T19:10:49.116Z,55.23
2022-07-31T19:13:19.065Z,57.67
2022-07-31T19:15:51.545Z,59.73
2022-07-31T19:18:20.408Z,61.22
2022-07-31T19:21:00.295Z,61.32
2022-07-31T19:23:41.558Z,63.80
2022-07-31T19:26:09.968Z,64.79
2022-07-31T19:28:36.701Z,65.07
2022-07-31T19:31:03.561Z,65.47
2022-07-31T19:33:30.117Z,65.57
2022-07-31T19:36:02.023Z,65.99
2022-07-31T19:38:33.058Z,65.74
2022-07-31T19:41:00.091Z,66.63
2022-07-31T19:43:26.800Z,67.08
2022-07-31T19:45:58.804Z,66.54
2022-07-31T19:48:39.575Z,67.45
2022-07-31T19:51:06.341Z,67.06
2022-07-31T19:53:32.759Z,67.08
2022-07-31T19:56:01.505Z,67.29
2022-07-31T19:58:27.929Z,67.24
2022-07-31T20:00:54.344Z,67.28
2022-07-31T20:03:20.837Z,67.66
2022-07-31T20:05:47.292Z,67.36
2022-07-31T20:08:13.686Z,67.72
2022-07-31T20:10:40.105Z,67.77
2022-07-31T20:13:06.491Z,67.60
2022-07-31T20:15:51.204Z,67.92
2022-07-31T20:18:27.404Z,68.29
2022-07-31T20:20:56.915Z,68.72
2022-07-31T20:23:23.782Z,68.73
2022-07-31T20:25:50.237Z,67.83
2022-07-31T20:28:16.850Z,68.25
2022-07-31T20:30:43.253Z,68.30
2022-07-31T20:33:11.140Z,68.16
2022-07-31T20:35:47.769Z,68.63
2022-07-31T20:38:16.651Z,68.73
2022-07-31T20:40:48.021Z,69.50
2022-07-31T20:43:21.055Z,72.11
2022-07-31T20:45:48.186Z,72.83
2022-07-31T20:48:17.575Z,73.54
2022-07-31T20:50:44.062Z,74.73
2022-07-31T20:53:14.615Z,74.92
2022-07-31T20:55:41.046Z,75.11
2022-07-31T20:58:07.473Z,74.90
2022-07-31T21:00:37.991Z,75.14
2022-07-31T21:03:05.819Z,74.70
2022-07-31T21:05:32.468Z,75.03
2022-07-31T21:07:58.998Z,74.62
2022-07-31T21:10:29.539Z,75.01
2022-07-31T21:12:56.716Z,74.38
2022-07-31T21:15:31.189Z,74.71
2022-07-31T21:18:11.283Z,75.02
2022-07-31T21:20:50.016Z,74.33
2022-07-31T21:23:23.822Z,74.50
2022-07-31T21:25:52.461Z,74.57
2022-07-31T21:28:19.388Z,74.64
2022-07-31T21:30:46.197Z,74.37
2022-07-31T21:33:12.687Z,74.31
2022-07-31T21:35:40.159Z,73.39
2022-07-31T21:38:12.154Z,73.63
2022-07-31T21:40:39.881Z,73.45
2022-07-31T21:43:06.715Z,73.68
2022-07-31T21:45:50.670Z,73.44
2022-07-31T21:48:22.287Z,73.31
2022-07-31T21:50:49.059Z,72.73
2022-07-31T21:53:15.694Z,71.48
2022-07-31T21:55:42.372Z,70.85
2022-07-31T21:58:09.268Z,69.58
2022-07-31T22:00:35.959Z,69.37
2022-07-31T22:03:02.894Z,68.12
2022-07-31T22:05:48.988Z,68.00
2022-07-31T22:08:16.333Z,67.74
2022-07-31T22:10:42.994Z,67.21
2022-07-31T22:13:09.641Z,66.83
2022-07-31T22:15:58.906Z,66.77
2022-07-31T22:18:22.819Z,66.66
2022-07-31T22:20:53.129Z,66.98
2022-07-31T22:23:19.804Z,66.15
2022-07-31T22:25:48.810Z,66.40
2022-07-31T22:28:18.680Z,65.23
2022-07-31T22:30:45.635Z,65.33
2022-07-31T22:33:12.279Z,65.03
2022-07-31T22:35:40.540Z,65.34
2022-07-31T22:38:07.805Z,65.31
2022-07-31T22:40:34.358Z,65.33
2022-07-31T22:43:02.581Z,65.49
2022-07-31T22:45:30.006Z,65.32
2022-07-31T22:47:57.402Z,65.99
2022-07-31T22:50:23.970Z,66.32
2022-07-31T22:52:50.395Z,66.01
2022-07-31T22:55:16.885Z,66.44
2022-07-31T22:57:46.264Z,66.46
2022-07-31T23:00:14.618Z,66.56
2022-07-31T23:02:42.149Z,66.60
2022-07-31T23:05:09.241Z,66.25
2022-07-31T23:07:35.773Z,66.30
2022-07-31T23:10:02.405Z,66.92
2022-07-31T23:12:29.481Z,67.92
2022-07-31T23:14:56.067Z,68.89
2022-07-31T23:17:23.522Z,69.86
2022-07-31T23:19:53.739Z,70.02
2022-07-31T23:22:33.190Z,70.09
2022-07-31T23:25:01.950Z,69.66
2022-07-31T23:27:28.515Z,70.04
2022-07-31T23:29:55.027Z,71.58
2022-07-31T23:32:21.528Z,71.62
2022-07-31T23:34:48.008Z,72.23
2022-07-31T23:37:14.519Z,71.46
2022-07-31T23:39:41.106Z,71.13
2022-07-31T23:42:26.174Z,71.49
2022-07-31T23:44:52.583Z,71.51
2022-07-31T23:47:19.168Z,70.89
2022-07-31T23:49:46.562Z,70.99
2022-07-31T23:52:12.990Z,70.88
2022-07-31T23:54:39.572Z,71.55
2022-07-31T23:57:06.027Z,71.62
2022-07-31T23:59:32.410Z,71.80
